Time;durP1;ratioP1;P1;durP2;ratioP2;P2;SDS_P1;SDS_P2;PMS_P1;PMS_P2;Temp;Humidity;BMP_temperature;BMP_pressure;BME280_temperature;BME280_humidity;BME280_pressure;Samples;Min_cycle;Max_cycle;Signal;HPM_P1;HPM_P2
2021/01/25 00:00:14;;;;;;;24.25;14.05;;;256.50;2176.00;;;;;;5077297;28;20020;-86
2021/01/25 00:02:40;;;;;;;35.38;21.67;;;256.40;2176.00;;;;;;5077689;28;20024;-84
2021/01/25 00:05:07;;;;;;;122.30;52.63;;;256.90;2201.60;;;;;;5084862;28;20034;-84
2021/01/25 00:07:34;;;;;;;68.47;31.63;;;256.30;2176.00;;;;;;5092059;28;20436;-87
2021/01/25 00:10:00;;;;;;;44.72;24.42;;;256.40;2150.40;;;;;;5090686;28;20476;-85
2021/01/25 00:12:27;;;;;;;72.85;37.45;;;256.40;2176.00;;;;;;5097923;28;20034;-84
2021/01/25 00:14:53;;;;;;;68.57;34.08;;;256.40;2176.00;;;;;;5089709;28;20103;-83
2021/01/25 00:17:18;;;;;;;23.10;12.52;;;256.30;2201.60;;;;;;5097410;28;20058;-81
2021/01/25 00:19:44;;;;;;;22.73;13.05;;;256.40;2099.20;;;;;;5098098;28;20027;-81
2021/01/25 00:22:10;;;;;;;35.35;20.33;;;256.40;2124.80;;;;;;5097242;28;20459;-80
2021/01/25 00:24:36;;;;;;;51.45;34.67;;;256.40;2124.80;;;;;;5098657;28;20027;-85
2021/01/25 00:27:02;;;;;;;20.50;12.07;;;256.50;2124.80;;;;;;5098607;28;20019;-84
2021/01/25 00:29:27;;;;;;;46.60;29.02;;;256.50;2048.00;;;;;;5099197;28;20451;-85
2021/01/25 00:31:54;;;;;;;15.98;9.77;;;256.60;2073.60;;;;;;5098553;28;20020;-88
2021/01/25 00:34:21;;;;;;;8.98;5.85;;;256.60;2073.60;;;;;;5098076;28;20386;-86
2021/01/25 00:36:47;;;;;;;18.52;11.70;;;256.60;2022.40;;;;;;5097268;28;20119;-84
2021/01/25 00:39:12;;;;;;;8.52;4.03;;;256.50;2073.60;;;;;;5098572;28;20051;-86
2021/01/25 00:41:38;;;;;;;20.98;11.88;;;256.70;1971.20;;;;;;5098733;28;20027;-86
2021/01/25 00:44:04;;;;;;;13.93;8.32;;;256.60;2048.00;;;;;;5114813;28;20128;-83
2021/01/25 00:46:30;;;;;;;12.70;8.35;;;256.70;2022.40;;;;;;5098012;28;20028;-79
2021/01/25 00:48:56;;;;;;;26.00;14.82;;;256.70;2073.60;;;;;;5096244;28;20477;-79
2021/01/25 00:51:22;;;;;;;22.67;14.48;;;256.60;2073.60;;;;;;5098265;28;20457;-86
2021/01/25 00:53:48;;;;;;;19.70;12.38;;;256.60;2099.20;;;;;;5117468;28;20038;-87
2021/01/25 00:56:14;;;;;;;26.90;15.15;;;256.60;2099.20;;;;;;5104369;28;20047;-84
2021/01/25 00:58:40;;;;;;;24.58;15.20;;;256.60;2099.20;;;;;;5122818;28;20131;-84
2021/01/25 01:01:06;;;;;;;34.92;21.52;;;256.60;2099.20;;;;;;5098268;28;20165;-83
2021/01/25 01:03:32;;;;;;;24.02;14.88;;;256.50;2124.80;;;;;;5115798;28;20046;-85
2021/01/25 01:05:58;;;;;;;20.17;13.07;;;256.50;2124.80;;;;;;5116341;28;20379;-85
2021/01/25 01:08:24;;;;;;;14.70;7.93;;;256.50;2124.80;;;;;;5098457;28;20035;-85
2021/01/25 01:10:50;;;;;;;13.73;8.50;;;256.50;2124.80;;;;;;5097802;28;20030;-85
2021/01/25 01:13:16;;;;;;;14.73;7.90;;;256.50;2124.80;;;;;;5095599;28;20099;-85
2021/01/25 01:15:42;;;;;;;18.75;10.50;;;281.70;2150.40;;;;;;5097049;28;20024;-84
2021/01/25 01:18:08;;;;;;;9.48;5.97;;;256.50;2124.80;;;;;;5096374;28;20430;-85
2021/01/25 01:20:34;;;;;;;13.20;7.30;;;256.30;2099.20;;;;;;5097443;28;20045;-85
2021/01/25 01:23:00;;;;;;;16.38;9.35;;;256.40;2124.80;;;;;;5097898;28;20028;-83
2021/01/25 01:25:26;;;;;;;24.15;12.82;;;256.40;2099.20;;;;;;5097658;28;20034;-83
2021/01/25 01:27:51;;;;;;;15.07;9.30;;;256.50;2099.20;;;;;;5097876;28;20113;-83
2021/01/25 01:30:17;;;;;;;6.80;3.97;;;256.40;2073.60;;;;;;5097339;28;20031;-86
2021/01/25 01:32:43;;;;;;;7.40;3.72;;;256.40;2099.20;;;;;;5097794;28;20055;-85
2021/01/25 01:35:09;;;;;;;12.98;6.53;;;256.40;2099.20;;;;;;5098581;28;20457;-85
2021/01/25 01:37:35;;;;;;;10.13;6.32;;;256.40;2099.20;;;;;;5097420;28;20114;-85
2021/01/25 01:40:06;;;;;;;10.25;6.00;;;256.40;2124.80;;;;;;5115778;28;20051;-86
2021/01/25 01:42:32;;;;;;;12.75;6.25;;;256.40;2124.80;;;;;;5098016;28;20048;-85
2021/01/25 01:44:58;;;;;;;20.23;11.00;;;256.30;2176.00;;;;;;5097073;28;20525;-85
2021/01/25 01:47:24;;;;;;;5.70;3.10;;;256.20;2176.00;;;;;;5097757;28;20058;-85
2021/01/25 01:49:50;;;;;;;4.57;2.33;;;256.20;2073.60;;;;;;5097496;28;20028;-85
2021/01/25 01:52:17;;;;;;;9.77;4.43;;;256.40;2048.00;;;;;;5096802;28;20024;-85
2021/01/25 01:54:44;;;;;;;8.98;4.32;;;256.40;2073.60;;;;;;5115841;28;20027;-84
2021/01/25 01:57:10;;;;;;;7.00;3.85;;;256.50;2099.20;;;;;;5097439;28;20023;-84
2021/01/25 01:59:37;;;;;;;34.83;19.10;;;256.40;2073.60;;;;;;5114913;28;20024;-84
2021/01/25 02:02:03;;;;;;;12.70;6.65;;;256.40;2048.00;;;;;;5096780;28;20024;-84
2021/01/25 02:04:30;;;;;;;7.82;4.32;;;231.20;2048.00;;;;;;5114903;28;20178;-82
2021/01/25 02:06:59;;;;;;;10.20;5.50;;;256.50;2048.00;;;;;;5096756;28;20054;-82
2021/01/25 02:09:26;;;;;;;8.35;4.55;;;256.60;2022.40;;;;;;5096634;28;20023;-82
2021/01/25 02:11:52;;;;;;;9.85;5.55;;;256.60;2022.40;;;;;;5096896;28;20028;-82
2021/01/25 02:14:19;;;;;;;10.82;6.47;;;256.60;2022.40;;;;;;5114474;28;20114;-82
2021/01/25 02:16:45;;;;;;;14.18;9.02;;;256.60;2022.40;;;;;;5098755;28;20028;-82
2021/01/25 02:19:33;;;;;;;22.75;11.50;;;256.60;2048.00;;;;;;5076164;28;20460;-83
2021/01/25 02:22:18;;;;;;;32.92;18.75;;;256.60;2022.40;;;;;;5075875;28;20486;-83
2021/01/25 02:24:50;;;;;;;27.77;17.08;;;256.60;2022.40;;;;;;5076244;28;20040;-82
2021/01/25 02:27:39;;;;;;;45.08;26.90;;;256.60;2022.40;;;;;;5076378;28;20028;-83
2021/01/25 02:30:06;;;;;;;16.27;10.18;;;256.50;2048.00;;;;;;5076363;28;20032;-83
2021/01/25 02:32:34;;;;;;;12.93;6.57;;;256.50;2073.60;;;;;;5076988;28;20464;-83
2021/01/25 02:35:03;;;;;;;14.95;7.63;;;256.40;2073.60;;;;;;5076213;28;20119;-83
2021/01/25 02:37:29;;;;;;;30.00;17.65;;;256.30;2099.20;;;;;;5076091;28;20119;-83
2021/01/25 02:39:57;;;;;;;27.63;17.67;;;256.30;2073.60;;;;;;5076420;28;20058;-83
2021/01/25 02:42:25;;;;;;;14.18;8.70;;;256.20;2073.60;;;;;;5076866;28;20054;-82
2021/01/25 02:44:51;;;;;;;12.75;7.10;;;256.20;2048.00;;;;;;5076099;28;20036;-83
2021/01/25 02:47:19;;;;;;;12.98;7.78;;;256.20;2048.00;;;;;;5075324;28;20371;-83
2021/01/25 02:49:45;;;;;;;16.20;9.02;;;256.20;2073.60;;;;;;5075898;28;20031;-83
2021/01/25 02:52:12;;;;;;;12.63;6.25;;;256.20;2022.40;;;;;;5094094;28;20372;-83
2021/01/25 02:54:38;;;;;;;10.95;6.05;;;256.20;2048.00;;;;;;5076235;28;20024;-84
2021/01/25 02:57:08;;;;;;;9.38;4.63;;;256.20;2048.00;;;;;;5076444;28;20475;-84
2021/01/25 02:59:35;;;;;;;7.93;4.40;;;256.20;2022.40;;;;;;5076992;28;20032;-83
2021/01/25 03:02:02;;;;;;;8.07;4.45;;;256.10;2073.60;;;;;;5079885;28;20028;-83
2021/01/25 03:04:29;;;;;;;8.80;4.45;;;256.00;2073.60;;;;;;5098082;28;20032;-84
2021/01/25 03:06:58;;;;;;;10.63;5.40;;;256.20;2073.60;;;;;;5079993;28;20471;-83
2021/01/25 03:09:24;;;;;;;9.73;5.50;;;256.00;2073.60;;;;;;5079975;28;20478;-83
2021/01/25 03:11:50;;;;;;;8.77;4.50;;;256.20;2048.00;;;;;;5079889;28;20024;-84
2021/01/25 03:14:15;;;;;;;11.07;5.53;;;256.00;2022.40;;;;;;5079887;28;20436;-84
2021/01/25 03:16:41;;;;;;;8.70;4.25;;;256.00;2048.00;;;;;;5079522;28;20020;-84
2021/01/25 03:19:07;;;;;;;7.45;4.07;;;256.00;2048.00;;;;;;5080362;28;20036;-84
2021/01/25 03:21:33;;;;;;;9.07;4.20;;;256.00;2073.60;;;;;;5080188;28;20028;-83
2021/01/25 03:23:59;;;;;;;13.95;5.22;;;256.00;2073.60;;;;;;5097578;28;20031;-84
2021/01/25 03:26:25;;;;;;;6.15;2.50;;;256.60;2073.60;;;;;;5080087;28;20039;-84
2021/01/25 03:28:51;;;;;;;5.82;3.10;;;231.30;2048.00;;;;;;5079980;28;20024;-84
2021/01/25 03:31:17;;;;;;;12.32;5.82;;;256.00;2048.00;;;;;;5079635;28;20082;-84
2021/01/25 03:33:43;;;;;;;13.07;6.45;;;256.00;2099.20;;;;;;5079780;28;20449;-84
2021/01/25 03:36:09;;;;;;;13.95;8.02;;;231.30;2099.20;;;;;;5079528;28;20028;-84
2021/01/25 03:38:35;;;;;;;15.60;8.15;;;231.30;2099.20;;;;;;5079731;28;20483;-84
2021/01/25 03:41:00;;;;;;;15.77;10.15;;;231.30;2124.80;;;;;;5098192;28;20033;-84
2021/01/25 03:43:26;;;;;;;23.77;11.23;;;231.30;2124.80;;;;;;5078663;28;20087;-84
2021/01/25 03:45:52;;;;;;;23.67;12.35;;;231.20;2124.80;;;;;;5079364;28;20024;-83
2021/01/25 03:48:18;;;;;;;18.17;9.55;;;231.20;2150.40;;;;;;5079253;28;20056;-83
2021/01/25 03:50:43;;;;;;;29.38;12.38;;;231.20;2150.40;;;;;;5078895;28;20232;-83
2021/01/25 03:53:10;;;;;;;21.77;10.35;;;231.20;2099.20;;;;;;5079652;28;20031;-84
2021/01/25 03:55:37;;;;;;;35.45;20.63;;;231.20;2099.20;;;;;;5079284;28;20447;-84
2021/01/25 03:58:03;;;;;;;23.45;14.60;;;231.10;2124.80;;;;;;5079127;28;20020;-84
2021/01/25 04:00:28;;;;;;;14.20;7.15;;;231.10;2124.80;;;;;;5079024;28;20423;-83
2021/01/25 04:02:54;;;;;;;8.40;4.00;;;231.10;2150.40;;;;;;5097145;28;20478;-84
2021/01/25 04:05:20;;;;;;;9.18;3.00;;;231.10;2124.80;;;;;;5096959;28;20380;-84
2021/01/25 04:07:47;;;;;;;12.60;3.72;;;231.10;2124.80;;;;;;5079154;28;20111;-84
2021/01/25 04:10:13;;;;;;;14.45;2.88;;;231.00;2176.00;;;;;;5079117;28;20026;-84
2021/01/25 04:12:39;;;;;;;10.85;2.10;;;231.00;2176.00;;;;;;5078558;28;20068;-84
2021/01/25 04:15:06;;;;;;;7.25;2.28;;;230.90;2176.00;;;;;;5081941;28;20035;-84
2021/01/25 04:17:32;;;;;;;6.47;2.45;;;230.90;2176.00;;;;;;5082304;28;20024;-85
2021/01/25 04:19:58;;;;;;;5.30;2.53;;;230.80;2176.00;;;;;;5080660;28;20127;-84
2021/01/25 04:22:24;;;;;;;15.30;7.32;;;230.80;2201.60;;;;;;5096764;28;20024;-84
2021/01/25 04:24:49;;;;;;;12.00;5.47;;;230.80;2201.60;;;;;;5078664;28;20028;-85
2021/01/25 04:27:15;;;;;;;10.40;3.78;;;230.80;2201.60;;;;;;5078385;28;20028;-85
2021/01/25 04:29:41;;;;;;;15.07;8.38;;;230.70;2201.60;;;;;;5078876;28;20024;-85
2021/01/25 04:32:11;;;;;;;10.35;5.43;;;230.70;2176.00;;;;;;5096510;28;20027;-85
2021/01/25 04:34:37;;;;;;;12.30;7.75;;;230.50;2124.80;;;;;;5078564;28;20028;-85
2021/01/25 04:37:03;;;;;;;9.82;5.65;;;230.40;2124.80;;;;;;5078647;28;20024;-85
2021/01/25 04:39:29;;;;;;;13.90;8.98;;;205.70;2073.60;;;;;;5078552;28;20020;-84
2021/01/25 04:41:55;;;;;;;13.15;7.68;;;205.40;2048.00;;;;;;5078122;28;20463;-85
2021/01/25 04:44:23;;;;;;;5.90;3.05;;;205.20;2022.40;;;;;;5078895;28;20051;-86
2021/01/25 04:46:49;;;;;;;9.38;6.28;;;204.80;1945.60;;;;;;5078114;28;20047;-86
2021/01/25 04:49:16;;;;;;;8.70;4.85;;;179.80;1996.80;;;;;;5078570;28;20032;-87
2021/01/25 04:51:43;;;;;;;11.68;4.38;;;179.50;1996.80;;;;;;5078403;28;20020;-87
2021/01/25 04:54:09;;;;;;;8.45;4.00;;;179.40;2022.40;;;;;;5078381;28;20036;-87
2021/01/25 04:56:35;;;;;;;8.20;3.95;;;154.50;2073.60;;;;;;5078294;28;20115;-86
2021/01/25 04:59:02;;;;;;;4.95;2.63;;;154.30;2073.60;;;;;;5078304;28;20024;-87
2021/01/25 05:01:29;;;;;;;5.63;3.28;;;153.90;2073.60;;;;;;5078186;28;20387;-87
2021/01/25 05:03:55;;;;;;;8.85;3.75;;;153.60;2124.80;;;;;;5078161;28;20135;-87
2021/01/25 05:06:21;;;;;;;5.97;2.95;;;128.90;2124.80;;;;;;5078128;28;20062;-87
2021/01/25 05:08:47;;;;;;;5.78;2.78;;;128.70;2124.80;;;;;;5077919;28;20028;-87
2021/01/25 05:11:14;;;;;;;12.55;5.47;;;128.60;2124.80;;;;;;5078091;28;20468;-88
2021/01/25 05:13:40;;;;;;;11.95;5.95;;;128.40;2176.00;;;;;;5095914;28;20032;-86
2021/01/25 05:16:16;;;;;;;8.98;4.57;;;128.40;2176.00;;;;;;5082336;28;20115;-87
2021/01/25 05:18:43;;;;;;;7.22;3.33;;;128.30;2176.00;;;;;;5098249;28;20024;-87
2021/01/25 05:21:09;;;;;;;13.10;6.00;;;128.20;2150.40;;;;;;5096915;28;20116;-88
2021/01/25 05:23:39;;;;;;;5.72;3.22;;;128.20;2176.00;;;;;;5097611;28;20063;-87
2021/01/25 05:26:09;;;;;;;5.30;3.45;;;128.70;2176.00;;;;;;5098110;28;20024;-87
2021/01/25 05:28:42;;;;;;;8.93;4.45;;;128.10;2150.40;;;;;;5097680;28;20039;-87
2021/01/25 05:31:19;;;;;;;11.85;6.32;;;128.10;2150.40;;;;;;5116097;28;20534;-89
2021/01/25 05:33:44;;;;;;;5.40;2.72;;;128.20;2124.80;;;;;;5098491;28;20130;-87
2021/01/25 05:36:10;;;;;;;4.75;2.78;;;128.10;2124.80;;;;;;5097680;28;20443;-87
2021/01/25 05:38:36;;;;;;;7.25;3.30;;;128.00;2150.40;;;;;;5097791;28;20027;-88
2021/01/25 05:41:04;;;;;;;7.55;3.38;;;103.20;2124.80;;;;;;5098177;28;20114;-88
2021/01/25 05:43:32;;;;;;;5.45;3.30;;;103.20;2150.40;;;;;;5095001;28;20130;-87
2021/01/25 05:46:12;;;;;;;12.07;4.80;;;103.20;2150.40;;;;;;5116175;28;20020;-87
2021/01/25 05:48:38;;;;;;;9.50;4.78;;;103.10;2124.80;;;;;;5114832;28;20023;-87
2021/01/25 05:51:12;;;;;;;12.45;6.10;;;103.10;2150.40;;;;;;5098136;28;20051;-86
2021/01/25 05:53:38;;;;;;;16.00;9.55;;;103.20;2176.00;;;;;;5098551;28;20023;-86
2021/01/25 05:56:11;;;;;;;23.25;10.77;;;103.30;2176.00;;;;;;5097472;28;20459;-87
2021/01/25 05:58:38;;;;;;;;;;;103.20;2124.80;;;;;;5114237;28;20099;-88
2021/01/25 06:01:05;;;;;;;18.45;10.05;;;103.10;2124.80;;;;;;5097507;28;19904;-87
2021/01/25 06:03:37;;;;;;;21.08;9.13;;;103.10;2150.40;;;;;;5096066;28;20027;-87
2021/01/25 06:06:17;;;;;;;30.33;13.57;;;103.10;2150.40;;;;;;5097594;28;20032;-88
2021/01/25 06:08:51;;;;;;;23.20;10.85;;;103.10;2124.80;;;;;;5097779;28;20459;-88
2021/01/25 06:11:32;;;;;;;25.52;13.20;;;103.20;2124.80;;;;;;5097594;28;20463;-87
2021/01/25 06:14:09;;;;;;;18.92;10.07;;;103.10;2150.40;;;;;;5096210;28;20023;-87
2021/01/25 06:16:35;;;;;;;31.48;14.57;;;103.20;2124.80;;;;;;5097080;28;20093;-87
2021/01/25 06:19:06;;;;;;;21.42;10.18;;;103.10;2099.20;;;;;;5096263;28;20031;-89
2021/01/25 06:21:34;;;;;;;21.10;9.32;;;103.10;2073.60;;;;;;5115431;28;20111;-86
2021/01/25 06:24:02;;;;;;;35.83;16.60;;;103.00;2099.20;;;;;;5096829;28;20036;-87
2021/01/25 06:26:31;;;;;;;11.68;6.90;;;103.10;2124.80;;;;;;5097171;28;20055;-87
2021/01/25 06:29:07;;;;;;;24.40;10.18;;;103.10;2099.20;;;;;;5097287;28;20031;-87
2021/01/25 06:31:38;;;;;;;10.20;5.60;;;103.00;2176.00;;;;;;5096975;28;20019;-89
2021/01/25 06:34:06;;;;;;;8.63;4.72;;;102.70;2227.20;;;;;;5097102;28;20028;-89
2021/01/25 06:36:34;;;;;;;16.80;8.07;;;102.60;2227.20;;;;;;5102821;28;20083;-88
2021/01/25 06:39:04;;;;;;;20.63;9.18;;;102.60;2227.20;;;;;;5101572;28;20027;-88
2021/01/25 06:41:40;;;;;;;12.57;7.55;;;102.60;2227.20;;;;;;5101138;28;20020;-88
2021/01/25 06:44:08;;;;;;;17.95;10.73;;;102.50;2227.20;;;;;;5097921;28;20080;-88
2021/01/25 06:46:36;;;;;;;27.55;14.00;;;102.50;2227.20;;;;;;5097772;28;20028;-88
2021/01/25 06:49:05;;;;;;;27.55;13.68;;;102.50;2227.20;;;;;;5097817;28;20024;-88
2021/01/25 06:51:31;;;;;;;28.15;12.95;;;102.60;2227.20;;;;;;5097793;28;20024;-88
2021/01/25 06:54:02;;;;;;;24.70;12.77;;;102.60;2227.20;;;;;;5097543;28;20115;-88
2021/01/25 06:56:49;;;;;;;21.08;11.48;;;102.60;2227.20;;;;;;5097983;28;20051;-88
2021/01/25 06:59:18;;;;;;;18.35;11.50;;;102.70;2227.20;;;;;;5097417;28;20043;-88
2021/01/25 07:01:50;;;;;;;18.67;10.82;;;102.70;2150.40;;;;;;5097725;28;20020;-87
2021/01/25 07:04:19;;;;;;;20.73;10.70;;;102.70;2150.40;;;;;;5097518;28;20040;-88
2021/01/25 07:06:53;;;;;;;19.92;12.10;;;102.80;2124.80;;;;;;5097359;28;20148;-88
2021/01/25 07:09:27;;;;;;;15.85;9.20;;;102.90;2099.20;;;;;;5098838;28;20048;-88
2021/01/25 07:11:58;;;;;;;13.77;8.10;;;102.90;2150.40;;;;;;5097443;28;20029;-88
2021/01/25 07:14:26;;;;;;;23.15;13.10;;;102.80;2150.40;;;;;;5095128;28;20033;-87
2021/01/25 07:16:54;;;;;;;17.17;10.88;;;102.90;2150.40;;;;;;5097527;28;20035;-88
2021/01/25 07:19:23;;;;;;;21.83;12.48;;;102.90;2124.80;;;;;;5097086;28;20525;-89
2021/01/25 07:21:52;;;;;;;24.52;12.75;;;102.90;2150.40;;;;;;5097085;28;20063;-88
2021/01/25 07:24:23;;;;;;;20.58;13.43;;;103.00;2124.80;;;;;;5097119;28;20064;-89
2021/01/25 07:26:50;;;;;;;25.75;15.20;;;103.00;2124.80;;;;;;5097182;28;20456;-88
2021/01/25 07:29:16;;;;;;;14.70;9.02;;;103.10;2124.80;;;;;;5096851;28;20517;-88
2021/01/25 07:31:42;;;;;;;18.05;11.50;;;103.10;2099.20;;;;;;5097314;28;20020;-88
2021/01/25 07:34:09;;;;;;;21.88;12.50;;;103.10;2099.20;;;;;;5096812;28;20069;-88
2021/01/25 07:36:36;;;;;;;18.02;10.30;;;103.20;2099.20;;;;;;5096911;28;20039;-87
2021/01/25 07:39:06;;;;;;;14.43;9.07;;;103.20;2099.20;;;;;;5098405;28;20083;-88
2021/01/25 07:41:32;;;;;;;20.05;11.68;;;103.30;2124.80;;;;;;5099431;28;20020;-87
2021/01/25 07:44:00;;;;;;;25.15;14.63;;;103.30;2099.20;;;;;;5099789;28;20109;-87
2021/01/25 07:46:27;;;;;;;18.40;12.75;;;128.00;2124.80;;;;;;5079063;28;20123;-87
2021/01/25 07:48:54;;;;;;;19.70;10.25;;;103.30;2073.60;;;;;;5078688;28;20069;-87
2021/01/25 07:51:24;;;;;;;12.48;8.15;;;103.30;2073.60;;;;;;5079661;28;20049;-88
2021/01/25 07:53:51;;;;;;;18.98;13.13;;;128.00;2124.80;;;;;;5097698;28;20035;-88
2021/01/25 07:56:18;;;;;;;17.73;15.02;;;128.10;2099.20;;;;;;5079386;28;20020;-88
2021/01/25 07:58:45;;;;;;;23.17;14.57;;;128.10;2073.60;;;;;;5080374;28;20110;-87
2021/01/25 08:01:25;;;;;;;17.75;10.43;;;128.10;2073.60;;;;;;5097554;28;20094;-88
2021/01/25 08:04:03;;;;;;;13.00;8.80;;;128.10;2022.40;;;;;;5096743;28;20028;-87
2021/01/25 08:06:34;;;;;;;18.70;11.43;;;128.10;2022.40;;;;;;5079969;28;20119;-88
2021/01/25 08:09:04;;;;;;;12.27;8.23;;;128.20;2022.40;;;;;;5079290;28;20031;-87
2021/01/25 08:11:31;;;;;;;17.73;11.35;;;128.10;2022.40;;;;;;5079483;28;20024;-87
2021/01/25 08:14:14;;;;;;;30.40;19.27;;;128.20;2048.00;;;;;;5080032;28;20383;-87
2021/01/25 08:16:42;;;;;;;;;;;128.20;2048.00;;;;;;5080228;28;20481;-87
2021/01/25 08:19:19;;;;;;;18.10;11.25;;;128.20;2022.40;;;;;;5079395;28;20309;-87
2021/01/25 08:22:03;;;;;;;18.10;10.30;;;128.20;2022.40;;;;;;5079460;28;20035;-87
2021/01/25 08:24:31;;;;;;;20.10;14.10;;;128.40;2022.40;;;;;;5079082;28;20028;-88
2021/01/25 08:27:12;;;;;;;19.98;11.05;;;128.30;1996.80;;;;;;5079102;28;20024;-87
2021/01/25 08:29:38;;;;;;;22.60;12.93;;;128.40;1996.80;;;;;;5079320;28;20030;-86
2021/01/25 08:32:25;;;;;;;30.15;16.08;;;128.40;1996.80;;;;;;5078792;28;20024;-88
2021/01/25 08:35:03;;;;;;;32.42;15.82;;;128.40;1971.20;;;;;;5078885;28;20028;-88
2021/01/25 08:37:32;;;;;;;29.27;26.25;;;128.40;2022.40;;;;;;5078537;28;20035;-87
2021/01/25 08:40:09;;;;;;;9.38;7.07;;;128.50;1996.80;;;;;;5078631;28;20026;-86
2021/01/25 08:42:35;;;;;;;15.77;10.90;;;128.40;1996.80;;;;;;5076586;28;20052;-87
2021/01/25 08:45:06;;;;;;;18.23;14.77;;;128.60;1996.80;;;;;;5089237;28;20048;-88
2021/01/25 08:47:33;;;;;;;22.48;20.17;;;128.50;1996.80;;;;;;5087525;28;20081;-87
2021/01/25 08:50:01;;;;;;;24.67;22.17;;;128.70;1996.80;;;;;;5083739;28;20029;-86
2021/01/25 08:52:30;;;;;;;13.48;12.07;;;128.80;2022.40;;;;;;5090170;28;20097;-87
2021/01/25 08:55:13;;;;;;;8.70;5.28;;;128.80;1971.20;;;;;;5091464;28;20028;-87
2021/01/25 08:57:42;;;;;;;13.25;9.30;;;128.80;1945.60;;;;;;5093779;28;20051;-86
2021/01/25 09:00:12;;;;;;;16.38;11.13;;;128.80;1945.60;;;;;;5093658;28;20028;-83
2021/01/25 09:02:38;;;;;;;15.02;11.70;;;153.60;1971.20;;;;;;5094742;28;20113;-85
2021/01/25 09:05:04;;;;;;;16.33;14.50;;;153.70;1971.20;;;;;;5094097;28;20424;-86
2021/01/25 09:07:31;;;;;;;21.15;18.92;;;153.90;1894.40;;;;;;5090456;28;20024;-87
2021/01/25 09:09:57;;;;;;;14.20;10.55;;;153.80;1868.80;;;;;;5086160;28;20085;-83
2021/01/25 09:12:24;;;;;;;18.67;15.25;;;153.80;1843.20;;;;;;5088889;28;20476;-85
2021/01/25 09:14:50;;;;;;;16.90;12.38;;;153.80;1868.80;;;;;;5081064;28;20099;-87
2021/01/25 09:17:15;;;;;;;13.65;8.52;;;153.80;1817.60;;;;;;5081043;28;20111;-81
2021/01/25 09:19:41;;;;;;;14.32;8.50;;;153.80;1817.60;;;;;;5077004;28;20028;-83
2021/01/25 09:22:10;;;;;;;19.30;10.52;;;154.00;1817.60;;;;;;5089049;28;20024;-85
2021/01/25 09:24:41;;;;;;;15.77;14.15;;;154.10;1817.60;;;;;;5089241;28;20117;-83
2021/01/25 09:27:08;;;;;;;16.40;13.80;;;154.20;1817.60;;;;;;5091772;28;20039;-83
2021/01/25 09:29:35;;;;;;;15.73;10.77;;;154.20;1817.60;;;;;;5091479;28;20119;-84
2021/01/25 09:32:00;;;;;;;14.13;8.38;;;154.30;1792.00;;;;;;5087945;28;20020;-82
2021/01/25 09:34:26;;;;;;;19.50;10.80;;;154.40;1792.00;;;;;;5085535;28;20032;-84
2021/01/25 09:36:52;;;;;;;17.95;10.10;;;154.50;1740.80;;;;;;5074124;28;20483;-83
2021/01/25 09:39:18;;;;;;;16.05;10.13;;;154.50;1740.80;;;;;;5076003;28;20380;-82
2021/01/25 09:41:46;;;;;;;33.10;20.77;;;154.40;1715.20;;;;;;5081911;28;20028;-84
2021/01/25 09:44:16;;;;;;;41.35;25.02;;;154.50;1740.80;;;;;;5085303;28;20463;-83
2021/01/25 09:46:42;;;;;;;23.73;15.65;;;179.30;1740.80;;;;;;5083568;28;20494;-84
2021/01/25 09:49:09;;;;;;;29.73;18.20;;;179.50;1715.20;;;;;;5085796;28;20131;-84
2021/01/25 09:51:36;;;;;;;16.08;9.95;;;179.40;1715.20;;;;;;5092404;28;20028;-81
2021/01/25 09:54:02;;;;;;;18.15;11.27;;;179.40;1689.60;;;;;;5107230;28;20557;-86
2021/01/25 09:56:28;;;;;;;31.33;18.15;;;179.50;1664.00;;;;;;5088207;28;20024;-85
2021/01/25 09:58:54;;;;;;;76.90;43.03;;;179.50;1715.20;;;;;;5087503;28;20114;-84
2021/01/25 10:01:21;;;;;;;78.30;42.20;;;179.70;1715.20;;;;;;5093432;28;20462;-84
2021/01/25 10:03:47;;;;;;;41.15;20.30;;;179.80;1664.00;;;;;;5093883;28;20119;-83
2021/01/25 10:06:13;;;;;;;110.65;64.93;;;179.80;1638.40;;;;;;5090364;28;20102;-84
2021/01/25 10:08:39;;;;;;;18.60;10.90;;;179.90;1638.40;;;;;;5086560;28;20024;-84
2021/01/25 10:11:05;;;;;;;22.75;13.68;;;180.00;1587.20;;;;;;5102947;28;20023;-83
2021/01/25 10:13:32;;;;;;;18.40;11.27;;;179.80;1612.80;;;;;;5089982;28;20058;-83
2021/01/25 10:15:58;;;;;;;30.30;18.00;;;180.00;1612.80;;;;;;5091552;28;20573;-82
2021/01/25 10:18:23;;;;;;;43.10;25.98;;;180.00;1664.00;;;;;;5089897;28;20024;-82
2021/01/25 10:20:49;;;;;;;46.78;28.45;;;179.80;1587.20;;;;;;5090475;28;20526;-81
2021/01/25 10:23:15;;;;;;;41.15;23.95;;;179.70;1689.60;;;;;;5109573;28;20031;-82
2021/01/25 10:25:41;;;;;;;31.08;21.50;;;179.80;1843.20;;;;;;5090322;28;20103;-83
2021/01/25 10:28:07;;;;;;;31.50;20.92;;;179.80;1971.20;;;;;;5103912;28;20114;-82
2021/01/25 10:30:33;;;;;;;30.33;19.58;;;180.00;1945.60;;;;;;5090477;28;20449;-83
2021/01/25 10:32:59;;;;;;;27.60;17.27;;;180.10;1920.00;;;;;;5090862;28;20030;-83
2021/01/25 10:35:26;;;;;;;22.63;13.80;;;204.90;1920.00;;;;;;5106305;28;20031;-83
2021/01/25 10:37:52;;;;;;;15.38;10.35;;;205.00;1945.60;;;;;;5091551;28;20051;-84
2021/01/25 10:40:18;;;;;;;15.18;8.73;;;205.10;1920.00;;;;;;5088525;28;20790;-82
2021/01/25 10:42:44;;;;;;;18.10;12.73;;;205.20;1894.40;;;;;;5090153;28;20105;-82
2021/01/25 10:45:11;;;;;;;18.75;13.48;;;205.20;1868.80;;;;;;5108477;28;20483;-82
2021/01/25 10:47:37;;;;;;;26.73;14.20;;;205.30;1894.40;;;;;;5090234;28;20293;-81
2021/01/25 10:50:05;;;;;;;23.58;13.68;;;205.70;1920.00;;;;;;5076946;28;20019;-81
2021/01/25 10:52:33;;;;;;;22.00;14.48;;;205.40;1894.40;;;;;;5089305;28;20051;-82
2021/01/25 10:54:59;;;;;;;20.67;14.35;;;205.30;1894.40;;;;;;5109058;28;20103;-82
2021/01/25 10:57:25;;;;;;;38.60;25.23;;;205.20;1868.80;;;;;;5089707;28;20115;-81
2021/01/25 10:59:50;;;;;;;34.40;21.73;;;205.20;1868.80;;;;;;5108100;28;20019;-82
2021/01/25 11:02:18;;;;;;;25.27;15.82;;;205.30;1817.60;;;;;;5103035;28;20020;-82
2021/01/25 11:04:45;;;;;;;26.45;15.70;;;205.30;1792.00;;;;;;5099990;28;20035;-82
2021/01/25 11:07:11;;;;;;;31.50;18.80;;;205.40;1766.40;;;;;;5089290;28;20024;-82
2021/01/25 11:09:37;;;;;;;25.05;16.77;;;205.50;1817.60;;;;;;5087260;28;20028;-82
2021/01/25 11:12:04;;;;;;;46.13;20.95;;;205.60;1868.80;;;;;;5089997;28;20023;-82
2021/01/25 11:14:29;;;;;;;18.95;13.02;;;205.70;1868.80;;;;;;5107787;28;20032;-82
2021/01/25 11:16:56;;;;;;;16.92;11.45;;;230.40;1817.60;;;;;;5091039;28;20084;-83
2021/01/25 11:19:22;;;;;;;19.45;11.90;;;230.40;1766.40;;;;;;5107859;28;20023;-83
2021/01/25 11:21:48;;;;;;;16.48;10.20;;;230.60;1740.80;;;;;;5110260;28;20432;-82
2021/01/25 11:24:14;;;;;;;13.20;8.82;;;230.70;1740.80;;;;;;5107805;28;20067;-82
2021/01/25 11:26:41;;;;;;;25.02;12.57;;;230.70;1715.20;;;;;;5093138;28;20028;-82
2021/01/25 11:29:08;;;;;;;15.18;9.05;;;230.80;1740.80;;;;;;5093460;28;20420;-81
2021/01/25 11:31:34;;;;;;;16.85;10.18;;;230.90;1843.20;;;;;;5111846;28;20059;-81
2021/01/25 11:34:00;;;;;;;13.93;8.40;;;230.90;1843.20;;;;;;5112878;28;20074;-82
2021/01/25 11:36:26;;;;;;;13.85;9.82;;;231.00;1817.60;;;;;;5092691;28;20028;-81
2021/01/25 11:38:52;;;;;;;15.73;9.95;;;231.30;1792.00;;;;;;5094255;28;20508;-81
2021/01/25 11:41:18;;;;;;;13.65;8.07;;;231.20;1817.60;;;;;;5094438;28;20015;-83
2021/01/25 11:43:45;;;;;;;19.55;12.93;;;231.30;1792.00;;;;;;5092402;28;20042;-82
2021/01/25 11:46:11;;;;;;;19.40;11.52;;;256.00;1766.40;;;;;;5093911;28;20463;-83
2021/01/25 11:48:37;;;;;;;27.55;17.42;;;256.20;1715.20;;;;;;5092567;28;20033;-84
2021/01/25 11:51:03;;;;;;;13.57;7.70;;;256.40;1689.60;;;;;;5092582;28;20020;-83
2021/01/25 11:53:30;;;;;;;15.85;9.77;;;256.70;1715.20;;;;;;5092239;28;20065;-83
2021/01/25 11:55:57;;;;;;;17.40;11.38;;;256.80;1715.20;;;;;;5091703;28;20016;-82
2021/01/25 11:58:24;;;;;;;16.48;10.73;;;256.60;1715.20;;;;;;5090440;28;20077;-83
2021/01/25 12:00:49;;;;;;;12.25;7.57;;;256.50;1740.80;;;;;;5107695;28;20020;-83
2021/01/25 12:03:15;;;;;;;14.95;10.20;;;256.60;1715.20;;;;;;5092958;28;20061;-82
2021/01/25 12:05:41;;;;;;;14.10;8.50;;;256.70;1715.20;;;;;;5092602;28;20019;-82
2021/01/25 12:08:07;;;;;;;11.88;7.25;;;256.70;1689.60;;;;;;5092561;28;20359;-83